Terminal Aerodrome Forecast
Issued by NWS Shreveport, LA

Home | Current Version | Previous Version | Text Only | Print | Product List | Glossary On
Versions: 1 2 3 4 5 6 7 8 9 10 11 12 13 14 15 16 17 18 19
000
FTUS44 KSHV 221100 RRA
TAFSHV
TAF
KSHV 221141Z 2212/2312 VRB03KT P6SM FEW250
     FM221600 09004KT P6SM SCT035
     FM222000 09006KT P6SM SCT045
     FM230000 10004KT P6SM SKC=

USA.gov is the U.S. government's official web portal to all federal, state and local government web resources and services.